sensor_id;sensor_type;location;lat;lon;timestamp;P1;durP1;ratioP1;P2;durP2;ratioP2
45792;SDS011;31495;42.740;22.908;2024-01-25T00:00:18;33.35;;;18.90;;
45792;SDS011;31495;42.740;22.908;2024-01-25T00:01:18;37.97;;;19.95;;
45792;SDS011;31495;42.740;22.908;2024-01-25T00:02:18;41.25;;;18.70;;
45792;SDS011;31495;42.740;22.908;2024-01-25T00:03:18;37.60;;;19.85;;
45792;SDS011;31495;42.740;22.908;2024-01-25T00:04:18;36.17;;;18.42;;
45792;SDS011;31495;42.740;22.908;2024-01-25T00:05:18;35.08;;;18.45;;
45792;SDS011;31495;42.740;22.908;2024-01-25T00:06:18;32.80;;;18.27;;
45792;SDS011;31495;42.740;22.908;2024-01-25T00:07:19;35.22;;;19.75;;
45792;SDS011;31495;42.740;22.908;2024-01-25T00:08:18;35.97;;;17.38;;
45792;SDS011;31495;42.740;22.908;2024-01-25T00:09:19;30.73;;;17.30;;
45792;SDS011;31495;42.740;22.908;2024-01-25T00:10:19;36.83;;;17.70;;
45792;SDS011;31495;42.740;22.908;2024-01-25T00:11:19;26.73;;;15.68;;
45792;SDS011;31495;42.740;22.908;2024-01-25T00:12:19;22.55;;;12.85;;
45792;SDS011;31495;42.740;22.908;2024-01-25T00:13:19;37.53;;;17.55;;
45792;SDS011;31495;42.740;22.908;2024-01-25T00:14:19;41.78;;;20.30;;
45792;SDS011;31495;42.740;22.908;2024-01-25T00:15:19;38.60;;;18.30;;
45792;SDS011;31495;42.740;22.908;2024-01-25T00:16:19;30.63;;;16.63;;
45792;SDS011;31495;42.740;22.908;2024-01-25T00:17:19;38.00;;;18.35;;
45792;SDS011;31495;42.740;22.908;2024-01-25T00:18:19;24.40;;;14.57;;
45792;SDS011;31495;42.740;22.908;2024-01-25T00:19:19;26.92;;;14.43;;
45792;SDS011;31495;42.740;22.908;2024-01-25T00:20:19;30.65;;;17.17;;
45792;SDS011;31495;42.740;22.908;2024-01-25T00:21:19;34.13;;;16.65;;
45792;SDS011;31495;42.740;22.908;2024-01-25T00:22:20;37.25;;;19.58;;
45792;SDS011;31495;42.740;22.908;2024-01-25T00:23:20;36.25;;;20.05;;
45792;SDS011;31495;42.740;22.908;2024-01-25T00:24:20;38.05;;;20.75;;
45792;SDS011;31495;42.740;22.908;2024-01-25T00:25:20;38.92;;;19.95;;
45792;SDS011;31495;42.740;22.908;2024-01-25T00:26:20;37.20;;;19.85;;
45792;SDS011;31495;42.740;22.908;2024-01-25T00:27:20;39.88;;;20.13;;
45792;SDS011;31495;42.740;22.908;2024-01-25T00:28:20;38.50;;;21.10;;
45792;SDS011;31495;42.740;22.908;2024-01-25T00:29:20;40.00;;;20.95;;
45792;SDS011;31495;42.740;22.908;2024-01-25T00:30:20;39.63;;;20.00;;
45792;SDS011;31495;42.740;22.908;2024-01-25T00:31:20;34.78;;;18.58;;
45792;SDS011;31495;42.740;22.908;2024-01-25T00:32:23;36.65;;;18.13;;
45792;SDS011;31495;42.740;22.908;2024-01-25T00:33:22;30.92;;;18.02;;
45792;SDS011;31495;42.740;22.908;2024-01-25T00:34:22;26.10;;;15.43;;
45792;SDS011;31495;42.740;22.908;2024-01-25T00:35:22;28.15;;;16.40;;
45792;SDS011;31495;42.740;22.908;2024-01-25T00:36:22;27.80;;;15.65;;
45792;SDS011;31495;42.740;22.908;2024-01-25T00:37:22;31.55;;;16.08;;
45792;SDS011;31495;42.740;22.908;2024-01-25T00:38:22;38.03;;;20.70;;
45792;SDS011;31495;42.740;22.908;2024-01-25T00:39:22;39.75;;;21.33;;
45792;SDS011;31495;42.740;22.908;2024-01-25T00:40:22;32.95;;;17.88;;
45792;SDS011;31495;42.740;22.908;2024-01-25T00:41:22;33.42;;;19.27;;
45792;SDS011;31495;42.740;22.908;2024-01-25T00:42:22;32.17;;;16.67;;
45792;SDS011;31495;42.740;22.908;2024-01-25T00:43:23;33.80;;;17.23;;
45792;SDS011;31495;42.740;22.908;2024-01-25T00:44:23;26.23;;;15.98;;
45792;SDS011;31495;42.740;22.908;2024-01-25T00:45:23;37.15;;;19.40;;
45792;SDS011;31495;42.740;22.908;2024-01-25T00:46:23;31.80;;;18.95;;
45792;SDS011;31495;42.740;22.908;2024-01-25T00:47:23;34.13;;;20.63;;
45792;SDS011;31495;42.740;22.908;2024-01-25T00:48:23;37.78;;;21.08;;
45792;SDS011;31495;42.740;22.908;2024-01-25T00:49:23;39.08;;;22.77;;
45792;SDS011;31495;42.740;22.908;2024-01-25T00:50:23;42.90;;;21.88;;
45792;SDS011;31495;42.740;22.908;2024-01-25T00:51:25;37.17;;;18.83;;
45792;SDS011;31495;42.740;22.908;2024-01-25T00:52:25;41.90;;;22.55;;
45792;SDS011;31495;42.740;22.908;2024-01-25T00:53:25;38.55;;;22.42;;
45792;SDS011;31495;42.740;22.908;2024-01-25T00:54:25;39.05;;;21.35;;
45792;SDS011;31495;42.740;22.908;2024-01-25T00:55:25;29.67;;;17.73;;
45792;SDS011;31495;42.740;22.908;2024-01-25T00:56:24;29.70;;;16.85;;
45792;SDS011;31495;42.740;22.908;2024-01-25T00:57:24;30.05;;;16.88;;
45792;SDS011;31495;42.740;22.908;2024-01-25T00:58:24;33.53;;;18.35;;
45792;SDS011;31495;42.740;22.908;2024-01-25T00:59:25;32.20;;;19.23;;
45792;SDS011;31495;42.740;22.908;2024-01-25T01:00:25;35.25;;;17.42;;
45792;SDS011;31495;42.740;22.908;2024-01-25T01:01:26;34.15;;;17.63;;
45792;SDS011;31495;42.740;22.908;2024-01-25T01:02:26;27.65;;;16.08;;
45792;SDS011;31495;42.740;22.908;2024-01-25T01:03:29;33.85;;;19.08;;
45792;SDS011;31495;42.740;22.908;2024-01-25T01:04:29;31.58;;;16.98;;
45792;SDS011;31495;42.740;22.908;2024-01-25T01:05:29;30.10;;;18.25;;
45792;SDS011;31495;42.740;22.908;2024-01-25T01:06:29;38.47;;;23.48;;
45792;SDS011;31495;42.740;22.908;2024-01-25T01:07:29;38.03;;;22.77;;
45792;SDS011;31495;42.740;22.908;2024-01-25T01:08:29;34.88;;;20.73;;
45792;SDS011;31495;42.740;22.908;2024-01-25T01:09:29;37.97;;;20.75;;
45792;SDS011;31495;42.740;22.908;2024-01-25T01:10:28;35.85;;;19.02;;
45792;SDS011;31495;42.740;22.908;2024-01-25T01:11:28;34.70;;;19.38;;
45792;SDS011;31495;42.740;22.908;2024-01-25T01:12:27;35.40;;;20.02;;
45792;SDS011;31495;42.740;22.908;2024-01-25T01:13:27;38.22;;;23.02;;
45792;SDS011;31495;42.740;22.908;2024-01-25T01:14:26;36.35;;;21.40;;
45792;SDS011;31495;42.740;22.908;2024-01-25T01:15:25;36.67;;;19.75;;
45792;SDS011;31495;42.740;22.908;2024-01-25T01:16:25;30.38;;;17.80;;
45792;SDS011;31495;42.740;22.908;2024-01-25T01:17:25;34.78;;;19.67;;
45792;SDS011;31495;42.740;22.908;2024-01-25T01:18:25;29.23;;;16.20;;
45792;SDS011;31495;42.740;22.908;2024-01-25T01:19:25;35.67;;;20.88;;
45792;SDS011;31495;42.740;22.908;2024-01-25T01:20:24;33.00;;;18.33;;
45792;SDS011;31495;42.740;22.908;2024-01-25T01:21:25;26.55;;;15.85;;
45792;SDS011;31495;42.740;22.908;2024-01-25T01:22:25;25.55;;;15.27;;
45792;SDS011;31495;42.740;22.908;2024-01-25T01:23:25;23.40;;;14.68;;
45792;SDS011;31495;42.740;22.908;2024-01-25T01:24:25;21.75;;;13.40;;
45792;SDS011;31495;42.740;22.908;2024-01-25T01:25:25;27.77;;;14.60;;
45792;SDS011;31495;42.740;22.908;2024-01-25T01:26:25;24.65;;;14.38;;
45792;SDS011;31495;42.740;22.908;2024-01-25T01:27:25;22.92;;;13.68;;
45792;SDS011;31495;42.740;22.908;2024-01-25T01:28:25;24.52;;;13.05;;
45792;SDS011;31495;42.740;22.908;2024-01-25T01:29:26;24.52;;;13.82;;
45792;SDS011;31495;42.740;22.908;2024-01-25T01:30:26;28.10;;;13.27;;
45792;SDS011;31495;42.740;22.908;2024-01-25T01:31:25;22.95;;;12.18;;
45792;SDS011;31495;42.740;22.908;2024-01-25T01:32:25;19.77;;;12.68;;
45792;SDS011;31495;42.740;22.908;2024-01-25T01:33:26;29.77;;;14.73;;
45792;SDS011;31495;42.740;22.908;2024-01-25T01:34:26;24.02;;;13.60;;
45792;SDS011;31495;42.740;22.908;2024-01-25T01:35:26;21.50;;;13.55;;
45792;SDS011;31495;42.740;22.908;2024-01-25T01:36:26;22.73;;;13.45;;
45792;SDS011;31495;42.740;22.908;2024-01-25T01:37:26;24.13;;;14.20;;
45792;SDS011;31495;42.740;22.908;2024-01-25T01:38:26;27.60;;;14.93;;
45792;SDS011;31495;42.740;22.908;2024-01-25T01:39:26;25.90;;;13.18;;
45792;SDS011;31495;42.740;22.908;2024-01-25T01:40:26;34.50;;;15.43;;
45792;SDS011;31495;42.740;22.908;2024-01-25T01:41:26;29.20;;;13.65;;
45792;SDS011;31495;42.740;22.908;2024-01-25T01:42:27;23.85;;;11.98;;
45792;SDS011;31495;42.740;22.908;2024-01-25T01:43:27;23.35;;;11.80;;
45792;SDS011;31495;42.740;22.908;2024-01-25T01:44:26;19.90;;;10.50;;
45792;SDS011;31495;42.740;22.908;2024-01-25T01:45:27;18.20;;;9.95;;
45792;SDS011;31495;42.740;22.908;2024-01-25T01:46:31;18.08;;;10.00;;
45792;SDS011;31495;42.740;22.908;2024-01-25T01:47:36;13.60;;;8.43;;
45792;SDS011;31495;42.740;22.908;2024-01-25T01:48:35;23.70;;;10.13;;
45792;SDS011;31495;42.740;22.908;2024-01-25T01:49:35;17.30;;;10.13;;
45792;SDS011;31495;42.740;22.908;2024-01-25T01:50:35;15.75;;;9.93;;
45792;SDS011;31495;42.740;22.908;2024-01-25T01:51:34;16.58;;;9.07;;
45792;SDS011;31495;42.740;22.908;2024-01-25T01:52:34;12.98;;;6.82;;
45792;SDS011;31495;42.740;22.908;2024-01-25T01:53:36;13.65;;;7.50;;
45792;SDS011;31495;42.740;22.908;2024-01-25T01:54:36;15.70;;;8.10;;
45792;SDS011;31495;42.740;22.908;2024-01-25T01:55:36;12.70;;;6.43;;
45792;SDS011;31495;42.740;22.908;2024-01-25T01:56:36;42.33;;;16.65;;
45792;SDS011;31495;42.740;22.908;2024-01-25T01:57:36;31.77;;;12.27;;
45792;SDS011;31495;42.740;22.908;2024-01-25T01:58:36;31.58;;;15.65;;
45792;SDS011;31495;42.740;22.908;2024-01-25T01:59:36;41.28;;;25.33;;
45792;SDS011;31495;42.740;22.908;2024-01-25T02:00:36;54.83;;;36.13;;
45792;SDS011;31495;42.740;22.908;2024-01-25T02:01:38;27.60;;;13.57;;
45792;SDS011;31495;42.740;22.908;2024-01-25T02:02:38;19.15;;;9.30;;
45792;SDS011;31495;42.740;22.908;2024-01-25T02:03:37;26.65;;;12.55;;
45792;SDS011;31495;42.740;22.908;2024-01-25T02:04:37;23.48;;;13.50;;
45792;SDS011;31495;42.740;22.908;2024-01-25T02:05:37;32.58;;;16.25;;
45792;SDS011;31495;42.740;22.908;2024-01-25T02:06:36;21.48;;;12.85;;
45792;SDS011;31495;42.740;22.908;2024-01-25T02:07:36;35.28;;;16.10;;
45792;SDS011;31495;42.740;22.908;2024-01-25T02:08:37;45.00;;;20.40;;
45792;SDS011;31495;42.740;22.908;2024-01-25T02:09:37;29.77;;;17.15;;
45792;SDS011;31495;42.740;22.908;2024-01-25T02:10:36;30.15;;;14.65;;
45792;SDS011;31495;42.740;22.908;2024-01-25T02:11:36;37.60;;;16.52;;
45792;SDS011;31495;42.740;22.908;2024-01-25T02:12:36;28.55;;;15.07;;
45792;SDS011;31495;42.740;22.908;2024-01-25T02:13:36;30.10;;;14.45;;
45792;SDS011;31495;42.740;22.908;2024-01-25T02:14:35;26.08;;;13.90;;
45792;SDS011;31495;42.740;22.908;2024-01-25T02:15:35;26.95;;;14.40;;
45792;SDS011;31495;42.740;22.908;2024-01-25T02:16:34;26.30;;;13.07;;
45792;SDS011;31495;42.740;22.908;2024-01-25T02:17:34;24.83;;;12.45;;
45792;SDS011;31495;42.740;22.908;2024-01-25T02:18:34;19.60;;;9.25;;
45792;SDS011;31495;42.740;22.908;2024-01-25T02:19:35;14.48;;;7.10;;
45792;SDS011;31495;42.740;22.908;2024-01-25T02:20:34;13.73;;;7.10;;
45792;SDS011;31495;42.740;22.908;2024-01-25T02:21:33;14.93;;;7.65;;
45792;SDS011;31495;42.740;22.908;2024-01-25T02:22:33;16.17;;;8.15;;
45792;SDS011;31495;42.740;22.908;2024-01-25T02:23:33;29.85;;;13.32;;
45792;SDS011;31495;42.740;22.908;2024-01-25T02:24:33;23.00;;;12.50;;
45792;SDS011;31495;42.740;22.908;2024-01-25T02:25:32;23.60;;;13.18;;
45792;SDS011;31495;42.740;22.908;2024-01-25T02:26:32;22.10;;;11.88;;
45792;SDS011;31495;42.740;22.908;2024-01-25T02:27:31;18.63;;;10.90;;
45792;SDS011;31495;42.740;22.908;2024-01-25T02:28:32;20.45;;;11.65;;
45792;SDS011;31495;42.740;22.908;2024-01-25T02:29:32;20.08;;;10.52;;
45792;SDS011;31495;42.740;22.908;2024-01-25T02:30:31;22.13;;;10.18;;
45792;SDS011;31495;42.740;22.908;2024-01-25T02:31:31;19.40;;;10.70;;
45792;SDS011;31495;42.740;22.908;2024-01-25T02:32:30;21.90;;;11.15;;
45792;SDS011;31495;42.740;22.908;2024-01-25T02:33:31;20.90;;;11.45;;
45792;SDS011;31495;42.740;22.908;2024-01-25T02:34:31;18.25;;;10.98;;
45792;SDS011;31495;42.740;22.908;2024-01-25T02:35:31;20.88;;;11.55;;
45792;SDS011;31495;42.740;22.908;2024-01-25T02:36:31;25.48;;;12.35;;
45792;SDS011;31495;42.740;22.908;2024-01-25T02:37:31;34.78;;;12.30;;
45792;SDS011;31495;42.740;22.908;2024-01-25T02:38:31;22.58;;;10.68;;
45792;SDS011;31495;42.740;22.908;2024-01-25T02:39:31;18.60;;;11.00;;
45792;SDS011;31495;42.740;22.908;2024-01-25T02:40:31;20.23;;;11.18;;
45792;SDS011;31495;42.740;22.908;2024-01-25T02:41:31;25.83;;;11.02;;
45792;SDS011;31495;42.740;22.908;2024-01-25T02:42:32;22.83;;;10.85;;
45792;SDS011;31495;42.740;22.908;2024-01-25T02:43:31;24.65;;;12.30;;
45792;SDS011;31495;42.740;22.908;2024-01-25T02:44:31;26.33;;;12.65;;
45792;SDS011;31495;42.740;22.908;2024-01-25T02:45:32;29.52;;;15.13;;
45792;SDS011;31495;42.740;22.908;2024-01-25T02:46:32;30.20;;;13.88;;
45792;SDS011;31495;42.740;22.908;2024-01-25T02:47:32;23.13;;;15.05;;
45792;SDS011;31495;42.740;22.908;2024-01-25T02:48:32;25.85;;;12.90;;
45792;SDS011;31495;42.740;22.908;2024-01-25T02:49:32;29.08;;;13.63;;
45792;SDS011;31495;42.740;22.908;2024-01-25T02:50:32;31.50;;;14.13;;
45792;SDS011;31495;42.740;22.908;2024-01-25T02:51:32;22.30;;;12.73;;
45792;SDS011;31495;42.740;22.908;2024-01-25T02:52:32;24.38;;;13.65;;
45792;SDS011;31495;42.740;22.908;2024-01-25T02:53:32;30.52;;;14.18;;
45792;SDS011;31495;42.740;22.908;2024-01-25T02:54:35;28.60;;;14.57;;
45792;SDS011;31495;42.740;22.908;2024-01-25T02:55:36;28.35;;;15.25;;
45792;SDS011;31495;42.740;22.908;2024-01-25T02:56:35;27.70;;;14.65;;
45792;SDS011;31495;42.740;22.908;2024-01-25T02:57:34;22.63;;;12.80;;
45792;SDS011;31495;42.740;22.908;2024-01-25T02:58:34;25.75;;;11.45;;
45792;SDS011;31495;42.740;22.908;2024-01-25T02:59:33;26.90;;;13.63;;
45792;SDS011;31495;42.740;22.908;2024-01-25T03:00:33;18.63;;;11.00;;
45792;SDS011;31495;42.740;22.908;2024-01-25T03:01:41;22.90;;;11.45;;
45792;SDS011;31495;42.740;22.908;2024-01-25T03:02:41;25.05;;;11.82;;
45792;SDS011;31495;42.740;22.908;2024-01-25T03:03:41;23.00;;;12.43;;
45792;SDS011;31495;42.740;22.908;2024-01-25T03:04:40;32.10;;;13.45;;
45792;SDS011;31495;42.740;22.908;2024-01-25T03:05:40;21.77;;;12.70;;
45792;SDS011;31495;42.740;22.908;2024-01-25T03:06:39;22.20;;;12.68;;
45792;SDS011;31495;42.740;22.908;2024-01-25T03:07:39;24.88;;;13.65;;
45792;SDS011;31495;42.740;22.908;2024-01-25T03:08:38;24.83;;;14.10;;
45792;SDS011;31495;42.740;22.908;2024-01-25T03:09:38;31.00;;;15.73;;
45792;SDS011;31495;42.740;22.908;2024-01-25T03:10:37;25.77;;;15.10;;
45792;SDS011;31495;42.740;22.908;2024-01-25T03:11:37;28.05;;;13.77;;
45792;SDS011;31495;42.740;22.908;2024-01-25T03:12:36;26.13;;;13.32;;
45792;SDS011;31495;42.740;22.908;2024-01-25T03:13:36;29.35;;;13.20;;
45792;SDS011;31495;42.740;22.908;2024-01-25T03:14:35;25.35;;;11.98;;
45792;SDS011;31495;42.740;22.908;2024-01-25T03:15:35;20.25;;;10.95;;
45792;SDS011;31495;42.740;22.908;2024-01-25T03:16:34;13.32;;;7.85;;
45792;SDS011;31495;42.740;22.908;2024-01-25T03:17:34;23.63;;;9.98;;
45792;SDS011;31495;42.740;22.908;2024-01-25T03:18:34;21.48;;;10.70;;
45792;SDS011;31495;42.740;22.908;2024-01-25T03:19:34;23.63;;;11.90;;
45792;SDS011;31495;42.740;22.908;2024-01-25T03:20:34;21.75;;;13.52;;
45792;SDS011;31495;42.740;22.908;2024-01-25T03:21:35;25.05;;;13.80;;
45792;SDS011;31495;42.740;22.908;2024-01-25T03:22:35;32.53;;;17.65;;
45792;SDS011;31495;42.740;22.908;2024-01-25T03:23:35;27.70;;;16.08;;
45792;SDS011;31495;42.740;22.908;2024-01-25T03:24:37;26.60;;;14.20;;
45792;SDS011;31495;42.740;22.908;2024-01-25T03:25:37;24.48;;;12.95;;
45792;SDS011;31495;42.740;22.908;2024-01-25T03:26:37;25.17;;;13.13;;
45792;SDS011;31495;42.740;22.908;2024-01-25T03:27:36;22.17;;;11.23;;
45792;SDS011;31495;42.740;22.908;2024-01-25T03:28:36;20.02;;;12.02;;
45792;SDS011;31495;42.740;22.908;2024-01-25T03:29:36;20.58;;;12.40;;
45792;SDS011;31495;42.740;22.908;2024-01-25T03:30:35;18.08;;;10.40;;
45792;SDS011;31495;42.740;22.908;2024-01-25T03:31:35;15.90;;;8.93;;
45792;SDS011;31495;42.740;22.908;2024-01-25T03:32:36;19.88;;;10.52;;
45792;SDS011;31495;42.740;22.908;2024-01-25T03:33:36;16.30;;;9.98;;
45792;SDS011;31495;42.740;22.908;2024-01-25T03:34:36;16.90;;;8.75;;
45792;SDS011;31495;42.740;22.908;2024-01-25T03:35:36;13.40;;;8.10;;
45792;SDS011;31495;42.740;22.908;2024-01-25T03:36:37;14.48;;;7.78;;
45792;SDS011;31495;42.740;22.908;2024-01-25T03:37:38;18.75;;;8.43;;
45792;SDS011;31495;42.740;22.908;2024-01-25T03:38:38;14.90;;;7.75;;
45792;SDS011;31495;42.740;22.908;2024-01-25T03:39:37;17.05;;;8.25;;
45792;SDS011;31495;42.740;22.908;2024-01-25T03:40:37;14.55;;;7.20;;
45792;SDS011;31495;42.740;22.908;2024-01-25T03:41:36;18.90;;;10.25;;
45792;SDS011;31495;42.740;22.908;2024-01-25T03:42:36;13.80;;;6.47;;
45792;SDS011;31495;42.740;22.908;2024-01-25T03:43:36;15.50;;;9.18;;
45792;SDS011;31495;42.740;22.908;2024-01-25T03:44:36;19.33;;;9.43;;
45792;SDS011;31495;42.740;22.908;2024-01-25T03:45:37;16.13;;;8.60;;
45792;SDS011;31495;42.740;22.908;2024-01-25T03:46:37;13.90;;;7.38;;
45792;SDS011;31495;42.740;22.908;2024-01-25T03:47:37;15.82;;;8.15;;
45792;SDS011;31495;42.740;22.908;2024-01-25T03:48:37;12.98;;;7.72;;
45792;SDS011;31495;42.740;22.908;2024-01-25T03:49:37;10.75;;;6.38;;
45792;SDS011;31495;42.740;22.908;2024-01-25T03:50:37;14.00;;;7.20;;
45792;SDS011;31495;42.740;22.908;2024-01-25T03:51:37;15.38;;;7.45;;
45792;SDS011;31495;42.740;22.908;2024-01-25T03:52:37;14.25;;;8.98;;
45792;SDS011;31495;42.740;22.908;2024-01-25T03:53:37;21.08;;;11.48;;
45792;SDS011;31495;42.740;22.908;2024-01-25T03:54:37;21.85;;;13.18;;
45792;SDS011;31495;42.740;22.908;2024-01-25T03:55:37;34.28;;;17.52;;
45792;SDS011;31495;42.740;22.908;2024-01-25T03:56:38;33.40;;;17.95;;
45792;SDS011;31495;42.740;22.908;2024-01-25T03:57:38;34.53;;;17.77;;
45792;SDS011;31495;42.740;22.908;2024-01-25T03:58:39;31.08;;;17.40;;
45792;SDS011;31495;42.740;22.908;2024-01-25T03:59:38;35.00;;;17.65;;
45792;SDS011;31495;42.740;22.908;2024-01-25T04:00:38;35.40;;;18.08;;
45792;SDS011;31495;42.740;22.908;2024-01-25T04:01:41;35.50;;;17.92;;
45792;SDS011;31495;42.740;22.908;2024-01-25T04:02:44;32.67;;;17.45;;
45792;SDS011;31495;42.740;22.908;2024-01-25T04:03:43;36.60;;;17.48;;
45792;SDS011;31495;42.740;22.908;2024-01-25T04:04:43;37.72;;;18.90;;
45792;SDS011;31495;42.740;22.908;2024-01-25T04:05:42;37.63;;;19.00;;
45792;SDS011;31495;42.740;22.908;2024-01-25T04:06:42;38.60;;;20.00;;
45792;SDS011;31495;42.740;22.908;2024-01-25T04:07:42;44.10;;;23.42;;
45792;SDS011;31495;42.740;22.908;2024-01-25T04:08:42;45.83;;;25.98;;
45792;SDS011;31495;42.740;22.908;2024-01-25T04:09:41;48.50;;;26.40;;
45792;SDS011;31495;42.740;22.908;2024-01-25T04:10:40;51.88;;;27.25;;
45792;SDS011;31495;42.740;22.908;2024-01-25T04:11:40;47.47;;;26.55;;
45792;SDS011;31495;42.740;22.908;2024-01-25T04:12:40;48.67;;;25.95;;
45792;SDS011;31495;42.740;22.908;2024-01-25T04:13:40;35.35;;;20.65;;
45792;SDS011;31495;42.740;22.908;2024-01-25T04:14:39;54.75;;;27.38;;
45792;SDS011;31495;42.740;22.908;2024-01-25T04:15:39;48.85;;;24.75;;
45792;SDS011;31495;42.740;22.908;2024-01-25T04:16:39;49.08;;;23.70;;
45792;SDS011;31495;42.740;22.908;2024-01-25T04:17:39;47.22;;;23.73;;
45792;SDS011;31495;42.740;22.908;2024-01-25T04:18:39;38.67;;;21.92;;
45792;SDS011;31495;42.740;22.908;2024-01-25T04:19:39;36.78;;;20.60;;
45792;SDS011;31495;42.740;22.908;2024-01-25T04:20:40;45.97;;;23.65;;
45792;SDS011;31495;42.740;22.908;2024-01-25T04:21:40;40.45;;;20.02;;
45792;SDS011;31495;42.740;22.908;2024-01-25T04:22:40;43.95;;;21.83;;
45792;SDS011;31495;42.740;22.908;2024-01-25T04:23:40;42.85;;;22.60;;
45792;SDS011;31495;42.740;22.908;2024-01-25T04:24:40;42.60;;;21.15;;
45792;SDS011;31495;42.740;22.908;2024-01-25T04:25:40;48.47;;;23.38;;
45792;SDS011;31495;42.740;22.908;2024-01-25T04:26:40;43.10;;;21.05;;
45792;SDS011;31495;42.740;22.908;2024-01-25T04:27:40;37.58;;;20.73;;
45792;SDS011;31495;42.740;22.908;2024-01-25T04:28:40;43.40;;;20.33;;
45792;SDS011;31495;42.740;22.908;2024-01-25T04:29:40;33.03;;;18.88;;
45792;SDS011;31495;42.740;22.908;2024-01-25T04:30:43;34.47;;;17.08;;
45792;SDS011;31495;42.740;22.908;2024-01-25T04:31:43;30.48;;;16.55;;
45792;SDS011;31495;42.740;22.908;2024-01-25T04:32:44;38.05;;;20.60;;
45792;SDS011;31495;42.740;22.908;2024-01-25T04:33:43;37.05;;;20.58;;
45792;SDS011;31495;42.740;22.908;2024-01-25T04:34:43;40.83;;;21.33;;
45792;SDS011;31495;42.740;22.908;2024-01-25T04:35:43;51.15;;;23.52;;
45792;SDS011;31495;42.740;22.908;2024-01-25T04:36:42;45.53;;;23.48;;
45792;SDS011;31495;42.740;22.908;2024-01-25T04:37:42;45.05;;;23.70;;
45792;SDS011;31495;42.740;22.908;2024-01-25T04:38:41;38.72;;;23.38;;
45792;SDS011;31495;42.740;22.908;2024-01-25T04:39:41;33.35;;;20.08;;
45792;SDS011;31495;42.740;22.908;2024-01-25T04:40:41;42.15;;;20.90;;
45792;SDS011;31495;42.740;22.908;2024-01-25T04:41:41;35.42;;;22.08;;
45792;SDS011;31495;42.740;22.908;2024-01-25T04:42:41;34.22;;;19.65;;
45792;SDS011;31495;42.740;22.908;2024-01-25T04:43:42;34.90;;;20.65;;
45792;SDS011;31495;42.740;22.908;2024-01-25T04:44:42;33.15;;;19.40;;
45792;SDS011;31495;42.740;22.908;2024-01-25T04:45:42;26.05;;;17.20;;
45792;SDS011;31495;42.740;22.908;2024-01-25T04:46:42;26.55;;;15.15;;
45792;SDS011;31495;42.740;22.908;2024-01-25T04:47:42;26.55;;;15.75;;
45792;SDS011;31495;42.740;22.908;2024-01-25T04:48:42;25.00;;;14.65;;
45792;SDS011;31495;42.740;22.908;2024-01-25T04:49:42;22.75;;;13.13;;
45792;SDS011;31495;42.740;22.908;2024-01-25T04:50:42;26.90;;;14.93;;
45792;SDS011;31495;42.740;22.908;2024-01-25T04:51:42;26.95;;;15.30;;
45792;SDS011;31495;42.740;22.908;2024-01-25T04:52:42;31.95;;;18.30;;
45792;SDS011;31495;42.740;22.908;2024-01-25T04:53:43;39.08;;;19.38;;
45792;SDS011;31495;42.740;22.908;2024-01-25T04:54:43;42.15;;;21.05;;
45792;SDS011;31495;42.740;22.908;2024-01-25T04:55:43;46.50;;;21.33;;
45792;SDS011;31495;42.740;22.908;2024-01-25T04:56:43;48.78;;;23.52;;
45792;SDS011;31495;42.740;22.908;2024-01-25T04:57:43;40.80;;;19.30;;
45792;SDS011;31495;42.740;22.908;2024-01-25T04:58:43;36.67;;;18.13;;
45792;SDS011;31495;42.740;22.908;2024-01-25T04:59:45;42.08;;;18.92;;
45792;SDS011;31495;42.740;22.908;2024-01-25T05:00:45;53.63;;;22.88;;
45792;SDS011;31495;42.740;22.908;2024-01-25T05:01:45;69.13;;;28.98;;
45792;SDS011;31495;42.740;22.908;2024-01-25T05:02:44;55.03;;;23.65;;
45792;SDS011;31495;42.740;22.908;2024-01-25T05:03:44;49.55;;;24.17;;
45792;SDS011;31495;42.740;22.908;2024-01-25T05:04:44;50.75;;;23.48;;
45792;SDS011;31495;42.740;22.908;2024-01-25T05:05:44;38.75;;;17.65;;
45792;SDS011;31495;42.740;22.908;2024-01-25T05:06:44;25.08;;;11.88;;
45792;SDS011;31495;42.740;22.908;2024-01-25T05:07:44;26.98;;;14.65;;
45792;SDS011;31495;42.740;22.908;2024-01-25T05:08:44;28.75;;;12.73;;
45792;SDS011;31495;42.740;22.908;2024-01-25T05:09:44;33.92;;;17.20;;
45792;SDS011;31495;42.740;22.908;2024-01-25T05:10:44;29.95;;;14.98;;
45792;SDS011;31495;42.740;22.908;2024-01-25T05:11:44;33.60;;;15.05;;
45792;SDS011;31495;42.740;22.908;2024-01-25T05:12:44;35.22;;;15.25;;
45792;SDS011;31495;42.740;22.908;2024-01-25T05:13:44;30.73;;;15.35;;
45792;SDS011;31495;42.740;22.908;2024-01-25T05:14:44;36.80;;;16.35;;
45792;SDS011;31495;42.740;22.908;2024-01-25T05:15:44;30.98;;;15.85;;
45792;SDS011;31495;42.740;22.908;2024-01-25T05:16:44;45.35;;;21.63;;
45792;SDS011;31495;42.740;22.908;2024-01-25T05:17:44;39.95;;;20.13;;
45792;SDS011;31495;42.740;22.908;2024-01-25T05:18:45;44.13;;;20.98;;
45792;SDS011;31495;42.740;22.908;2024-01-25T05:19:45;54.58;;;27.17;;
45792;SDS011;31495;42.740;22.908;2024-01-25T05:20:45;61.03;;;28.75;;
45792;SDS011;31495;42.740;22.908;2024-01-25T05:21:45;60.40;;;30.10;;
45792;SDS011;31495;42.740;22.908;2024-01-25T05:22:45;77.60;;;37.47;;
45792;SDS011;31495;42.740;22.908;2024-01-25T05:23:45;86.95;;;39.33;;
45792;SDS011;31495;42.740;22.908;2024-01-25T05:24:45;78.40;;;34.78;;
45792;SDS011;31495;42.740;22.908;2024-01-25T05:25:45;75.57;;;34.88;;
45792;SDS011;31495;42.740;22.908;2024-01-25T05:26:45;64.15;;;31.45;;
45792;SDS011;31495;42.740;22.908;2024-01-25T05:27:45;58.85;;;27.10;;
45792;SDS011;31495;42.740;22.908;2024-01-25T05:28:45;55.10;;;24.10;;
45792;SDS011;31495;42.740;22.908;2024-01-25T05:29:46;53.55;;;25.45;;
45792;SDS011;31495;42.740;22.908;2024-01-25T05:30:46;46.38;;;23.80;;
45792;SDS011;31495;42.740;22.908;2024-01-25T05:31:46;41.08;;;22.85;;
45792;SDS011;31495;42.740;22.908;2024-01-25T05:32:47;42.97;;;22.85;;
45792;SDS011;31495;42.740;22.908;2024-01-25T05:33:48;52.95;;;24.73;;
45792;SDS011;31495;42.740;22.908;2024-01-25T05:34:47;53.05;;;28.42;;
45792;SDS011;31495;42.740;22.908;2024-01-25T05:35:47;45.67;;;20.85;;
45792;SDS011;31495;42.740;22.908;2024-01-25T05:36:47;72.45;;;26.85;;
45792;SDS011;31495;42.740;22.908;2024-01-25T05:37:47;62.67;;;26.45;;
45792;SDS011;31495;42.740;22.908;2024-01-25T05:38:46;75.20;;;30.15;;
45792;SDS011;31495;42.740;22.908;2024-01-25T05:39:46;101.80;;;42.22;;
45792;SDS011;31495;42.740;22.908;2024-01-25T05:40:46;116.03;;;40.75;;
45792;SDS011;31495;42.740;22.908;2024-01-25T05:41:47;170.95;;;51.92;;
45792;SDS011;31495;42.740;22.908;2024-01-25T05:42:47;243.93;;;64.03;;
45792;SDS011;31495;42.740;22.908;2024-01-25T05:43:47;78.85;;;28.48;;
45792;SDS011;31495;42.740;22.908;2024-01-25T05:44:47;57.63;;;24.77;;
45792;SDS011;31495;42.740;22.908;2024-01-25T05:45:47;44.15;;;21.92;;
45792;SDS011;31495;42.740;22.908;2024-01-25T05:46:47;51.05;;;22.20;;